createdAt,value
2022-12-11T00:01:58.676Z,0.95
2022-12-11T00:04:24.993Z,0.80
2022-12-11T00:06:51.605Z,0.90
2022-12-11T00:09:18.159Z,0.90
2022-12-11T00:11:44.598Z,0.80
2022-12-11T00:14:11.145Z,0.75
2022-12-11T00:16:37.496Z,1.00
2022-12-11T00:19:04.106Z,0.80
2022-12-11T00:21:30.405Z,0.90
2022-12-11T00:23:56.762Z,0.70
2022-12-11T00:26:23.017Z,0.75
2022-12-11T00:28:52.155Z,0.90
2022-12-11T00:31:19.186Z,0.80
2022-12-11T00:33:45.733Z,0.88
2022-12-11T00:36:16.071Z,0.90
2022-12-11T00:38:43.006Z,0.57
2022-12-11T00:41:09.304Z,0.70
2022-12-11T00:43:35.729Z,0.80
2022-12-11T00:46:02.428Z,0.75
2022-12-11T00:48:28.755Z,0.77
2022-12-11T00:50:55.058Z,0.50
2022-12-11T00:53:21.389Z,0.70
2022-12-11T00:55:47.645Z,0.80
2022-12-11T00:58:14.425Z,0.80
2022-12-11T01:00:41.185Z,0.80
2022-12-11T01:03:08.012Z,0.90
2022-12-11T01:05:34.446Z,0.75
2022-12-11T01:08:00.778Z,0.90
2022-12-11T01:10:27.350Z,0.88
2022-12-11T01:12:55.145Z,0.80
2022-12-11T01:15:23.019Z,1.00
2022-12-11T01:17:50.083Z,1.10
2022-12-11T01:20:16.650Z,1.30
2022-12-11T01:22:42.950Z,1.00
2022-12-11T01:25:10.326Z,1.10
2022-12-11T01:27:37.618Z,1.27
2022-12-11T01:30:07.745Z,1.60
2022-12-11T01:32:38.205Z,1.20
2022-12-11T01:35:05.523Z,1.48
2022-12-11T01:37:31.787Z,1.98
2022-12-11T01:39:59.472Z,1.67
2022-12-11T01:42:26.323Z,2.05
2022-12-11T01:44:52.553Z,1.20
2022-12-11T01:47:18.881Z,1.80
2022-12-11T01:49:45.180Z,1.10
2022-12-11T01:52:15.237Z,1.00
2022-12-11T01:54:42.188Z,0.80
2022-12-11T01:57:09.291Z,0.80
2022-12-11T01:59:37.715Z,1.13
2022-12-11T02:02:14.270Z,0.82
2022-12-11T02:04:41.796Z,1.00
2022-12-11T02:07:08.141Z,0.90
2022-12-11T02:09:36.110Z,0.70
2022-12-11T02:12:06.691Z,0.80
2022-12-11T02:14:40.555Z,0.80
2022-12-11T02:17:10.807Z,0.70
2022-12-11T02:19:46.016Z,0.70
2022-12-11T02:22:17.227Z,0.82
2022-12-11T02:24:46.435Z,0.90
2022-12-11T02:27:15.664Z,0.57
2022-12-11T02:29:53.677Z,0.63
2022-12-11T02:32:19.875Z,0.95
2022-12-11T02:34:54.086Z,0.60
2022-12-11T02:37:21.819Z,0.52
2022-12-11T02:39:49.514Z,0.60
2022-12-11T02:42:18.829Z,0.40
2022-12-11T02:44:46.452Z,0.50
2022-12-11T02:47:13.803Z,0.47
2022-12-11T02:49:41.182Z,0.38
2022-12-11T02:52:07.683Z,0.50
2022-12-11T02:54:35.905Z,0.45
2022-12-11T02:57:10.083Z,0.52
2022-12-11T02:59:38.459Z,0.40
2022-12-11T03:02:04.978Z,0.40
2022-12-11T03:04:31.867Z,0.50
2022-12-11T03:07:01.471Z,0.65
2022-12-11T03:09:27.946Z,0.32
2022-12-11T03:11:54.297Z,0.20
2022-12-11T03:14:20.727Z,0.40
2022-12-11T03:17:04.953Z,0.22
2022-12-11T03:19:34.425Z,0.30
2022-12-11T03:22:16.923Z,0.30
2022-12-11T03:27:19.365Z,0.30
2022-12-11T03:29:53.956Z,0.50
2022-12-11T03:32:23.169Z,0.20
2022-12-11T03:34:59.556Z,0.55
2022-12-11T03:37:28.667Z,0.30
2022-12-11T03:40:04.573Z,0.20
2022-12-11T03:42:31.623Z,0.13
2022-12-11T03:44:59.849Z,0.20
2022-12-11T03:47:27.077Z,0.40
2022-12-11T03:49:53.529Z,0.13
2022-12-11T03:52:19.920Z,0.30
2022-12-11T03:54:47.553Z,0.20
2022-12-11T03:57:15.945Z,0.20
2022-12-11T03:59:42.474Z,0.20
2022-12-11T04:02:10.747Z,0.30
2022-12-11T04:04:38.135Z,0.20
2022-12-11T04:07:04.411Z,0.03
2022-12-11T04:09:30.852Z,0.03
2022-12-11T04:11:57.098Z,0.10
2022-12-11T04:14:41.849Z,0.00
2022-12-11T04:17:08.189Z,0.00
2022-12-11T04:19:53.034Z,0.00
2022-12-11T04:22:37.793Z,0.10
2022-12-11T04:25:05.154Z,0.00
2022-12-11T04:27:49.541Z,0.13
2022-12-11T04:30:17.362Z,0.03
2022-12-11T04:32:44.835Z,0.00
2022-12-11T04:35:11.845Z,0.00
2022-12-11T04:37:38.755Z,0.00
2022-12-11T04:40:06.314Z,0.03
2022-12-11T04:42:32.608Z,0.10
2022-12-11T04:44:58.893Z,0.00
2022-12-11T04:47:25.261Z,0.00
2022-12-11T04:49:51.650Z,0.00
2022-12-11T04:52:18.085Z,0.00
2022-12-11T04:54:44.431Z,0.00
2022-12-11T04:57:10.778Z,0.00
2022-12-11T04:59:37.213Z,0.00
2022-12-11T05:02:04.020Z,0.00
2022-12-11T05:04:31.632Z,0.00
2022-12-11T05:06:57.906Z,0.13
2022-12-11T05:09:24.325Z,0.10
2022-12-11T05:11:50.630Z,0.00
2022-12-11T05:14:17.004Z,0.00
2022-12-11T05:16:43.264Z,0.10
2022-12-11T05:19:09.607Z,0.00
2022-12-11T05:21:38.265Z,0.00
2022-12-11T05:24:04.790Z,0.08
2022-12-11T05:26:31.027Z,0.00
2022-12-11T05:28:57.441Z,0.00
2022-12-11T05:31:24.795Z,0.00
2022-12-11T05:33:51.268Z,0.00
2022-12-11T05:36:19.185Z,0.00
2022-12-11T05:38:45.811Z,0.00
2022-12-11T05:41:13.371Z,0.10
2022-12-11T05:43:39.867Z,0.00
2022-12-11T05:46:13.959Z,0.03
2022-12-11T05:48:40.797Z,0.00
2022-12-11T05:51:08.303Z,0.00
2022-12-11T05:53:35.493Z,0.10
2022-12-11T05:56:03.131Z,0.00
2022-12-11T05:58:29.423Z,0.00
2022-12-11T06:00:55.786Z,0.10
2022-12-11T06:03:22.105Z,0.10
2022-12-11T06:05:49.283Z,0.00
2022-12-11T06:08:15.589Z,0.00
2022-12-11T06:10:50.813Z,0.00
2022-12-11T06:13:17.626Z,0.10
2022-12-11T06:15:43.952Z,0.00
2022-12-11T06:18:10.636Z,0.00
2022-12-11T06:20:37.009Z,0.00
2022-12-11T06:23:03.320Z,0.10
2022-12-11T06:25:29.728Z,0.00
2022-12-11T06:27:56.050Z,0.10
2022-12-11T06:30:22.339Z,0.10
2022-12-11T06:33:05.573Z,0.10
2022-12-11T06:35:31.967Z,0.00
2022-12-11T06:37:59.171Z,0.00
2022-12-11T06:40:25.450Z,0.00
2022-12-11T06:42:51.706Z,0.00
2022-12-11T06:45:18.042Z,0.10
2022-12-11T06:47:44.337Z,0.00
2022-12-11T06:50:10.635Z,0.10
2022-12-11T06:52:36.954Z,0.00
2022-12-11T06:55:03.306Z,0.13
2022-12-11T06:57:29.579Z,0.10
2022-12-11T06:59:55.915Z,0.10
2022-12-11T07:02:22.350Z,0.10
2022-12-11T07:04:53.461Z,0.10
2022-12-11T07:07:21.294Z,0.00
2022-12-11T07:09:47.614Z,0.00
2022-12-11T07:12:13.912Z,0.00
2022-12-11T07:14:40.249Z,0.08
2022-12-11T07:17:06.506Z,0.10
2022-12-11T07:19:32.763Z,0.00
2022-12-11T07:21:58.985Z,0.00
2022-12-11T07:24:25.308Z,0.10
2022-12-11T07:26:51.748Z,0.00
2022-12-11T07:29:18.083Z,0.00
2022-12-11T07:31:44.432Z,0.00
2022-12-11T07:34:11.785Z,0.05
2022-12-11T07:36:38.029Z,0.10
2022-12-11T07:39:04.343Z,0.00
2022-12-11T07:41:31.823Z,0.00
2022-12-11T07:43:59.285Z,0.03
2022-12-11T07:46:26.611Z,0.00
2022-12-11T07:48:53.231Z,0.10
2022-12-11T07:51:22.729Z,0.00
2022-12-11T07:53:49.544Z,0.10
2022-12-11T07:56:16.512Z,0.10
2022-12-11T07:58:42.846Z,0.03
2022-12-11T08:01:13.504Z,0.00
2022-12-11T08:03:39.910Z,0.00
2022-12-11T08:06:06.723Z,0.10
2022-12-11T08:08:33.063Z,0.10
2022-12-11T08:11:06.478Z,0.00
2022-12-11T08:13:33.063Z,0.00
2022-12-11T08:16:02.807Z,0.00
2022-12-11T08:18:30.334Z,0.00
2022-12-11T08:20:56.564Z,0.00
2022-12-11T08:23:22.828Z,0.00
2022-12-11T08:25:49.094Z,0.00
2022-12-11T08:28:15.327Z,0.00
2022-12-11T08:30:41.639Z,0.00
2022-12-11T08:33:07.909Z,0.00
2022-12-11T08:35:37.959Z,0.00
2022-12-11T08:38:04.183Z,0.00
2022-12-11T08:40:30.424Z,0.10
2022-12-11T08:42:56.686Z,0.10
2022-12-11T08:45:22.995Z,0.00
2022-12-11T08:47:49.423Z,0.00
2022-12-11T08:50:15.763Z,0.00
2022-12-11T08:52:41.990Z,0.00
2022-12-11T08:55:08.723Z,0.08
2022-12-11T08:57:35.025Z,0.00
2022-12-11T09:00:01.335Z,0.10
2022-12-11T09:02:27.671Z,0.00
2022-12-11T09:04:53.929Z,0.00
2022-12-11T09:07:20.203Z,0.03
2022-12-11T09:09:46.563Z,0.00
2022-12-11T09:12:13.844Z,0.00
2022-12-11T09:14:40.129Z,0.00
2022-12-11T09:17:06.500Z,0.00
2022-12-11T09:19:32.790Z,0.00
2022-12-11T09:21:59.193Z,0.00
2022-12-11T09:24:25.488Z,0.08
2022-12-11T09:26:51.769Z,0.05
2022-12-11T09:29:18.060Z,0.00
2022-12-11T09:31:44.421Z,0.00
2022-12-11T09:34:11.878Z,0.00
2022-12-11T09:36:38.632Z,0.10
2022-12-11T09:39:06.090Z,0.00
2022-12-11T09:41:36.973Z,0.00
2022-12-11T09:44:12.174Z,0.00
2022-12-11T09:46:39.164Z,0.00
2022-12-11T09:49:11.867Z,0.10
2022-12-11T09:51:50.021Z,0.00
2022-12-11T09:54:16.349Z,0.00
2022-12-11T09:56:45.514Z,0.00
2022-12-11T09:59:26.314Z,0.00
2022-12-11T10:01:57.183Z,0.00
2022-12-11T10:04:35.584Z,0.00
2022-12-11T10:07:04.995Z,0.00
2022-12-11T10:09:39.049Z,0.00
2022-12-11T10:12:17.416Z,0.00
2022-12-11T10:15:02.651Z,0.00
2022-12-11T10:17:33.938Z,0.00
2022-12-11T10:20:11.265Z,0.03
2022-12-11T10:22:37.660Z,0.00
2022-12-11T10:25:12.910Z,0.08
2022-12-11T10:27:40.100Z,0.00
2022-12-11T10:30:20.273Z,0.00
2022-12-11T10:32:46.509Z,0.00
2022-12-11T10:35:28.156Z,0.00
2022-12-11T10:38:11.521Z,0.10
2022-12-11T10:40:39.906Z,0.00
2022-12-11T10:43:08.312Z,0.20
2022-12-11T10:45:34.585Z,0.00
2022-12-11T10:48:04.762Z,0.10
2022-12-11T10:50:31.105Z,0.00
2022-12-11T10:52:58.180Z,0.00
2022-12-11T10:55:30.495Z,0.00
2022-12-11T11:00:29.293Z,0.00
2022-12-11T11:02:55.692Z,0.00
2022-12-11T11:05:29.693Z,0.00
2022-12-11T11:08:13.800Z,0.00
2022-12-11T11:11:09.321Z,0.00
2022-12-11T11:13:35.942Z,0.00
2022-12-11T11:16:06.789Z,0.00
2022-12-11T11:18:34.147Z,0.00
2022-12-11T11:21:00.904Z,0.03
2022-12-11T11:23:27.882Z,0.00
2022-12-11T11:25:59.053Z,0.00
2022-12-11T11:28:30.495Z,0.00
2022-12-11T11:31:07.575Z,0.10
2022-12-11T11:33:35.046Z,0.00
2022-12-11T11:36:05.975Z,0.00
2022-12-11T11:38:37.325Z,0.00
2022-12-11T11:41:18.873Z,0.10
2022-12-11T11:43:46.353Z,0.00
2022-12-11T11:46:24.678Z,0.00
2022-12-11T11:49:00.285Z,0.10
2022-12-11T11:51:32.084Z,0.00
2022-12-11T11:54:00.066Z,0.00
2022-12-11T11:56:28.838Z,0.00
2022-12-11T11:59:10.374Z,0.00
2022-12-11T12:01:36.794Z,0.10
2022-12-11T12:04:03.906Z,0.00
2022-12-11T12:06:50.537Z,0.10
2022-12-11T12:09:37.768Z,0.00
2022-12-11T12:12:10.828Z,0.05
2022-12-11T12:15:01.769Z,0.08
2022-12-11T12:17:49.243Z,0.00
2022-12-11T12:20:22.963Z,0.00
2022-12-11T12:22:49.227Z,0.03
2022-12-11T12:25:21.520Z,0.10
2022-12-11T12:30:22.926Z,0.00
2022-12-11T12:32:57.156Z,0.00
2022-12-11T12:35:34.120Z,0.00
2022-12-11T12:38:35.762Z,0.08
2022-12-11T12:41:02.028Z,0.10
2022-12-11T12:43:37.276Z,0.20
2022-12-11T12:46:22.560Z,0.08
2022-12-11T12:48:49.977Z,0.00
2022-12-11T12:51:16.759Z,0.00
2022-12-11T12:53:46.858Z,0.00
2022-12-11T12:56:13.562Z,0.10
2022-12-11T12:58:41.967Z,0.00
2022-12-11T13:01:20.282Z,0.20
2022-12-11T13:04:05.932Z,0.13
2022-12-11T13:06:40.168Z,0.00
2022-12-11T13:09:25.643Z,0.10
2022-12-11T13:11:57.728Z,0.00
2022-12-11T13:14:28.391Z,0.03
2022-12-11T13:17:05.474Z,0.00
2022-12-11T13:19:35.429Z,0.00
2022-12-11T13:22:14.583Z,0.05
2022-12-11T13:24:48.547Z,0.00
2022-12-11T13:27:24.022Z,0.00
2022-12-11T13:29:50.394Z,0.00
2022-12-11T13:32:16.624Z,0.05
2022-12-11T13:34:44.213Z,0.05
2022-12-11T13:37:29.694Z,0.00
2022-12-11T13:39:56.554Z,0.10
2022-12-11T13:42:29.644Z,0.08
2022-12-11T13:44:56.856Z,0.10
2022-12-11T13:47:23.923Z,0.10
2022-12-11T13:49:53.938Z,0.00
2022-12-11T13:52:22.288Z,0.08
2022-12-11T13:54:50.190Z,0.00
2022-12-11T13:57:16.486Z,0.20
2022-12-11T13:59:43.692Z,0.10
2022-12-11T14:02:27.573Z,0.00
2022-12-11T14:04:58.753Z,0.00
2022-12-11T14:07:27.508Z,0.00
2022-12-11T14:09:56.810Z,0.10
2022-12-11T14:12:23.105Z,0.00
2022-12-11T14:14:52.048Z,0.10
2022-12-11T14:17:23.404Z,0.10
2022-12-11T14:19:50.167Z,0.05
2022-12-11T14:22:18.514Z,0.00
2022-12-11T14:24:49.163Z,0.10
2022-12-11T14:27:17.522Z,0.10
2022-12-11T14:29:43.786Z,0.00
2022-12-11T14:32:17.583Z,0.10
2022-12-11T14:34:45.313Z,0.10
2022-12-11T14:37:12.625Z,0.10
2022-12-11T14:39:47.595Z,0.13
2022-12-11T14:42:16.639Z,0.00
2022-12-11T14:44:53.622Z,0.00
2022-12-11T14:47:21.421Z,0.10
2022-12-11T14:50:05.570Z,0.10
2022-12-11T14:52:48.749Z,0.13
2022-12-11T14:55:19.671Z,0.10
2022-12-11T14:57:47.426Z,0.00
2022-12-11T15:00:26.167Z,0.03
2022-12-11T15:03:21.291Z,0.00
2022-12-11T15:05:52.069Z,0.10
2022-12-11T15:08:24.724Z,0.00
2022-12-11T15:11:04.084Z,0.03
2022-12-11T15:13:30.569Z,0.13
2022-12-11T15:15:57.074Z,0.10
2022-12-11T15:18:24.403Z,0.00
2022-12-11T15:20:52.667Z,0.08
2022-12-11T15:23:19.692Z,0.10
2022-12-11T15:25:56.513Z,0.03
2022-12-11T15:28:27.463Z,0.00
2022-12-11T15:31:01.851Z,0.10
2022-12-11T15:33:34.142Z,0.10
2022-12-11T15:36:02.949Z,0.00
2022-12-11T15:38:31.212Z,0.20
2022-12-11T15:40:57.904Z,0.00
2022-12-11T15:43:24.288Z,0.10
2022-12-11T15:45:50.665Z,0.10
2022-12-11T15:48:16.921Z,0.00
2022-12-11T15:50:46.270Z,0.00
2022-12-11T15:53:12.563Z,0.05
2022-12-11T15:55:39.103Z,0.05
2022-12-11T15:58:06.984Z,0.10
2022-12-11T16:00:33.511Z,0.30
2022-12-11T16:02:59.844Z,0.00
2022-12-11T16:05:26.422Z,0.10
2022-12-11T16:07:54.542Z,0.05
2022-12-11T16:10:21.845Z,0.05
2022-12-11T16:12:48.120Z,0.10
2022-12-11T16:15:21.431Z,0.10
2022-12-11T16:17:49.255Z,0.10
2022-12-11T16:20:15.557Z,0.00
2022-12-11T16:22:41.847Z,0.08
2022-12-11T16:25:08.193Z,0.10
2022-12-11T16:27:34.610Z,0.00
2022-12-11T16:30:00.833Z,0.10
2022-12-11T16:32:27.074Z,0.05
2022-12-11T16:34:54.003Z,0.00
2022-12-11T16:37:20.381Z,0.20
2022-12-11T16:39:46.923Z,0.00
2022-12-11T16:42:13.353Z,0.03
2022-12-11T16:44:43.811Z,0.00
2022-12-11T16:47:10.569Z,0.00
2022-12-11T16:49:36.853Z,0.00
2022-12-11T16:52:03.196Z,0.10
2022-12-11T16:54:29.433Z,0.00
2022-12-11T16:56:55.697Z,0.10
2022-12-11T16:59:21.916Z,0.00
2022-12-11T17:01:50.369Z,0.00
2022-12-11T17:04:16.874Z,0.03
2022-12-11T17:06:44.419Z,0.00
2022-12-11T17:09:11.274Z,0.05
2022-12-11T17:11:37.670Z,0.10
2022-12-11T17:14:03.977Z,0.03
2022-12-11T17:16:30.457Z,0.00
2022-12-11T17:18:57.635Z,0.20
2022-12-11T17:21:24.382Z,0.00
2022-12-11T17:23:51.142Z,0.05
2022-12-11T17:26:17.977Z,0.10
2022-12-11T17:28:44.511Z,0.10
2022-12-11T17:31:15.790Z,0.10
2022-12-11T17:33:42.714Z,0.10
2022-12-11T17:36:09.381Z,0.10
2022-12-11T17:38:35.801Z,0.00
2022-12-11T17:41:05.240Z,0.00
2022-12-11T17:43:31.506Z,0.00
2022-12-11T17:45:57.826Z,0.00
2022-12-11T17:48:24.151Z,0.10
2022-12-11T17:50:51.482Z,0.00
2022-12-11T17:53:18.578Z,0.00
2022-12-11T17:55:45.568Z,0.10
2022-12-11T17:58:13.407Z,0.10
2022-12-11T18:00:40.054Z,0.10
2022-12-11T18:03:06.435Z,0.00
2022-12-11T18:05:32.708Z,0.10
2022-12-11T18:07:58.981Z,0.03
2022-12-11T18:10:25.395Z,0.00
2022-12-11T18:12:51.722Z,0.10
2022-12-11T18:15:21.000Z,0.00
2022-12-11T18:17:47.370Z,0.00
2022-12-11T18:20:14.663Z,0.00
2022-12-11T18:22:40.919Z,0.10
2022-12-11T18:25:10.238Z,0.00
2022-12-11T18:27:38.399Z,0.00
2022-12-11T18:30:04.874Z,0.00
2022-12-11T18:32:31.164Z,0.00
2022-12-11T18:34:57.457Z,0.00
2022-12-11T18:37:27.907Z,0.00
2022-12-11T18:39:54.595Z,0.00
2022-12-11T18:42:36.167Z,0.00
2022-12-11T18:45:02.572Z,0.00
2022-12-11T18:47:28.870Z,0.00
2022-12-11T18:49:55.407Z,0.10
2022-12-11T18:52:21.865Z,0.00
2022-12-11T18:54:49.101Z,0.00
2022-12-11T18:57:15.482Z,0.00
2022-12-11T18:59:41.753Z,0.00
2022-12-11T19:02:08.113Z,0.00
2022-12-11T19:04:36.016Z,0.00
2022-12-11T19:07:02.349Z,0.00
2022-12-11T19:09:31.607Z,0.00
2022-12-11T19:12:00.308Z,0.00
2022-12-11T19:14:26.653Z,0.00
2022-12-11T19:16:53.123Z,0.00
2022-12-11T19:19:20.206Z,0.00
2022-12-11T19:21:46.737Z,0.00
2022-12-11T19:24:14.875Z,0.00
2022-12-11T19:26:41.178Z,0.00
2022-12-11T19:29:07.540Z,0.00
2022-12-11T19:31:34.566Z,0.00
2022-12-11T19:34:01.358Z,0.00
2022-12-11T19:36:28.854Z,0.00
2022-12-11T19:39:01.574Z,0.00
2022-12-11T19:41:29.076Z,0.00
2022-12-11T19:43:56.306Z,0.00
2022-12-11T19:46:23.092Z,0.00
2022-12-11T19:48:50.304Z,0.00
2022-12-11T19:51:17.904Z,0.10
2022-12-11T19:53:45.060Z,0.05
2022-12-11T19:56:12.050Z,0.00
2022-12-11T19:58:38.721Z,0.00
2022-12-11T20:01:05.543Z,0.00
2022-12-11T20:03:32.042Z,0.00
2022-12-11T20:06:01.929Z,0.00
2022-12-11T20:08:44.274Z,0.00
2022-12-11T20:11:17.631Z,0.00
2022-12-11T20:13:45.888Z,0.15
2022-12-11T20:16:13.046Z,0.00
2022-12-11T20:18:39.683Z,0.10
2022-12-11T20:21:07.771Z,0.00
2022-12-11T20:23:35.076Z,0.00
2022-12-11T20:26:18.684Z,0.10
2022-12-11T20:28:47.814Z,0.00
2022-12-11T20:31:20.012Z,0.00
2022-12-11T20:33:47.098Z,0.00
2022-12-11T20:36:14.558Z,0.00
2022-12-11T20:38:41.544Z,0.00
2022-12-11T20:41:15.142Z,0.00
2022-12-11T20:43:41.687Z,0.00
2022-12-11T20:46:08.765Z,0.00
2022-12-11T20:48:35.416Z,0.00
2022-12-11T20:51:02.052Z,0.00
2022-12-11T20:53:28.537Z,0.00
2022-12-11T20:55:55.393Z,0.00
2022-12-11T20:58:21.963Z,0.00
2022-12-11T21:00:48.375Z,0.00
2022-12-11T21:03:14.686Z,0.00
2022-12-11T21:05:44.394Z,0.00
2022-12-11T21:08:11.146Z,0.00
2022-12-11T21:10:41.497Z,0.00
2022-12-11T21:13:07.949Z,0.00
2022-12-11T21:15:37.532Z,0.00
2022-12-11T21:18:03.857Z,0.00
2022-12-11T21:20:30.242Z,0.00
2022-12-11T21:22:57.514Z,0.00
2022-12-11T21:25:24.334Z,0.00
2022-12-11T21:27:50.672Z,0.00
2022-12-11T21:30:17.269Z,0.00
2022-12-11T21:32:43.533Z,0.00
2022-12-11T21:35:10.064Z,0.10
2022-12-11T21:37:36.555Z,0.05
2022-12-11T21:40:03.897Z,0.00
2022-12-11T21:42:30.286Z,0.00
2022-12-11T21:45:37.485Z,0.00
2022-12-11T21:47:42.749Z,0.10
2022-12-11T21:50:09.178Z,0.10
2022-12-11T21:52:36.942Z,0.00
2022-12-11T21:55:03.462Z,0.00
2022-12-11T21:57:30.063Z,0.00
2022-12-11T21:59:56.354Z,0.00
2022-12-11T22:02:22.767Z,0.00
2022-12-11T22:04:49.073Z,0.05
2022-12-11T22:07:16.189Z,0.00
2022-12-11T22:09:42.822Z,0.00
2022-12-11T22:12:12.865Z,0.10
2022-12-11T22:14:39.172Z,0.00
2022-12-11T22:17:05.438Z,0.00
2022-12-11T22:19:32.908Z,0.00
2022-12-11T22:21:59.330Z,0.00
2022-12-11T22:24:25.587Z,0.00
2022-12-11T22:26:51.869Z,0.00
2022-12-11T22:29:18.115Z,0.00
2022-12-11T22:31:44.389Z,0.00
2022-12-11T22:34:10.620Z,0.10
2022-12-11T22:36:36.909Z,0.00
2022-12-11T22:39:03.202Z,0.08
2022-12-11T22:41:30.346Z,0.00
2022-12-11T22:43:57.139Z,0.00
2022-12-11T22:46:24.897Z,0.00
2022-12-11T22:48:51.381Z,0.00
2022-12-11T22:51:17.653Z,0.00
2022-12-11T22:53:43.911Z,0.00
2022-12-11T22:56:11.279Z,0.00
2022-12-11T22:58:37.592Z,0.00
2022-12-11T23:01:07.605Z,0.00
2022-12-11T23:03:33.944Z,0.00
2022-12-11T23:06:04.985Z,0.00
2022-12-11T23:08:31.657Z,0.00
2022-12-11T23:10:58.029Z,0.05
2022-12-11T23:13:24.289Z,0.00
2022-12-11T23:15:50.580Z,0.00
2022-12-11T23:18:16.886Z,0.00
2022-12-11T23:20:44.571Z,0.00
2022-12-11T23:23:10.906Z,0.00
2022-12-11T23:25:37.200Z,0.00
2022-12-11T23:28:03.460Z,0.00
2022-12-11T23:30:29.733Z,0.00
2022-12-11T23:32:56.001Z,0.00
2022-12-11T23:35:22.291Z,0.00
2022-12-11T23:37:48.536Z,0.00
2022-12-11T23:40:14.817Z,0.00
2022-12-11T23:42:41.287Z,0.10
2022-12-11T23:45:07.758Z,0.00
2022-12-11T23:47:34.234Z,0.00
2022-12-11T23:50:00.459Z,0.00
2022-12-11T23:52:26.795Z,0.00
2022-12-11T23:54:55.183Z,0.00
2022-12-11T23:57:21.815Z,0.25
2022-12-11T23:59:48.086Z,0.00
